createdAt,value
2019-06-08T00:00:34.365Z,87.59
2019-06-08T00:01:34.348Z,88.23
2019-06-08T00:02:34.346Z,88.13
2019-06-08T00:03:34.328Z,88.09
2019-06-08T00:04:34.320Z,87.93
2019-06-08T00:05:34.307Z,88.94
2019-06-08T00:06:34.296Z,88.94
2019-06-08T00:07:34.284Z,88.94
2019-06-08T00:08:34.271Z,88.78
2019-06-08T00:09:34.261Z,88.94
2019-06-08T00:10:34.252Z,88.94
2019-06-08T00:11:34.244Z,89.44
2019-06-08T00:12:34.230Z,88.84
2019-06-08T00:13:34.227Z,88.84
2019-06-08T00:14:34.209Z,89.24
2019-06-08T00:15:34.198Z,89.39
2019-06-08T00:16:34.199Z,89.48
2019-06-08T00:17:38.509Z,89.48
2019-06-08T00:18:35.161Z,89.89
2019-06-08T00:19:34.153Z,90.19
2019-06-08T00:20:34.140Z,90.79
2019-06-08T00:21:34.127Z,90.59
2019-06-08T00:22:34.117Z,90.39
2019-06-08T00:23:34.106Z,90.39
2019-06-08T00:24:34.098Z,90.59
2019-06-08T00:25:34.082Z,90.39
2019-06-08T00:26:34.072Z,90.49
2019-06-08T00:27:34.063Z,90.09
2019-06-08T00:28:34.052Z,90.29
2019-06-08T00:29:34.041Z,90.59
2019-06-08T00:30:35.236Z,90.39
2019-06-08T00:31:34.019Z,90.29
2019-06-08T00:32:34.044Z,90.49
2019-06-08T00:33:33.995Z,90.29
2019-06-08T00:34:33.991Z,90.39
2019-06-08T00:35:33.973Z,90.49
2019-06-08T00:36:33.961Z,90.49
2019-06-08T00:37:33.951Z,90.44
2019-06-08T00:38:33.941Z,90.33
2019-06-08T00:39:33.927Z,90.69
2019-06-08T00:40:33.924Z,90.69
2019-06-08T00:41:33.912Z,90.39
2019-06-08T00:42:33.897Z,90.49
2019-06-08T00:43:33.889Z,90.84
2019-06-08T00:44:33.875Z,90.64
2019-06-08T00:45:33.863Z,91.24
2019-06-08T00:46:33.860Z,90.84
2019-06-08T00:47:47.162Z,90.94
2019-06-08T00:48:34.827Z,91.24
2019-06-08T00:49:33.818Z,90.84
2019-06-08T00:50:33.806Z,91.64
2019-06-08T00:51:33.799Z,91.34
2019-06-08T00:52:33.784Z,91.54
2019-06-08T00:53:33.776Z,91.34
2019-06-08T00:54:33.766Z,91.74
2019-06-08T00:55:33.763Z,91.85
2019-06-08T00:56:33.744Z,91.85
2019-06-08T00:57:33.733Z,91.85
2019-06-08T00:58:33.718Z,91.85
2019-06-08T00:59:33.709Z,92.14
2019-06-08T01:00:33.697Z,91.94
2019-06-08T01:01:33.689Z,91.64
2019-06-08T01:02:33.676Z,91.94
2019-06-08T01:03:33.665Z,92.25
2019-06-08T01:04:33.661Z,92.55
2019-06-08T01:05:33.641Z,92.95
2019-06-08T01:06:33.632Z,92.29
2019-06-08T01:07:33.621Z,92.35
2019-06-08T01:08:33.623Z,92.65
2019-06-08T01:09:33.598Z,92.55
2019-06-08T01:10:33.588Z,92.85
2019-06-08T01:11:33.575Z,92.99
2019-06-08T01:12:33.565Z,93.19
2019-06-08T01:13:33.554Z,93.30
2019-06-08T01:14:33.550Z,93.30
2019-06-08T01:15:34.442Z,93.50
2019-06-08T01:16:33.522Z,93.30
2019-06-08T01:17:33.510Z,92.75
2019-06-08T01:18:33.501Z,92.95
2019-06-08T01:19:33.492Z,92.55
2019-06-08T01:20:33.476Z,91.85
2019-06-08T01:21:33.464Z,91.80
2019-06-08T01:22:33.454Z,91.70
2019-06-08T01:23:33.447Z,91.70
2019-06-08T01:24:33.464Z,91.70
2019-06-08T01:25:33.421Z,91.50
2019-06-08T01:26:33.412Z,91.30
2019-06-08T01:27:33.399Z,91.30
2019-06-08T01:28:33.393Z,90.65
2019-06-08T01:29:33.374Z,90.34
2019-06-08T01:30:33.366Z,91.15
2019-06-08T01:31:33.371Z,90.15
2019-06-08T01:32:33.497Z,90.45
2019-06-08T01:33:33.336Z,90.55
2019-06-08T01:34:33.324Z,90.65
2019-06-08T01:35:33.310Z,90.55
2019-06-08T01:36:33.301Z,90.55
2019-06-08T01:37:33.285Z,90.45
2019-06-08T01:38:33.283Z,90.45
2019-06-08T01:39:33.267Z,90.75
2019-06-08T01:40:33.256Z,90.45
2019-06-08T01:41:33.247Z,90.34
2019-06-08T01:42:33.235Z,90.15
2019-06-08T01:43:33.229Z,90.25
2019-06-08T01:44:33.211Z,90.50
2019-06-08T01:45:33.531Z,90.50
2019-06-08T01:46:33.187Z,90.05
2019-06-08T01:47:33.177Z,89.70
2019-06-08T01:48:33.166Z,89.60
2019-06-08T01:49:33.171Z,89.00
2019-06-08T01:50:33.184Z,89.30
2019-06-08T01:51:33.133Z,89.50
2019-06-08T01:52:33.121Z,89.36
2019-06-08T01:53:33.117Z,89.50
2019-06-08T01:54:33.384Z,89.50
2019-06-08T01:55:33.320Z,89.40
2019-06-08T01:56:33.427Z,88.70
2019-06-08T01:57:33.816Z,89.20
2019-06-08T01:58:33.478Z,89.50
2019-06-08T01:59:34.678Z,88.39
2019-06-08T02:00:39.392Z,88.90
2019-06-08T02:01:34.252Z,88.49
2019-06-08T02:02:34.205Z,88.19
2019-06-08T02:03:34.675Z,88.19
2019-06-08T02:04:33.528Z,88.39
2019-06-08T02:05:34.415Z,86.88
2019-06-08T02:06:32.966Z,86.58
2019-06-08T02:07:32.957Z,86.58
2019-06-08T02:08:32.942Z,85.98
2019-06-08T02:09:32.932Z,86.18
2019-06-08T02:10:32.994Z,86.58
2019-06-08T02:11:33.071Z,85.38
2019-06-08T02:12:33.136Z,84.21
2019-06-08T02:13:33.161Z,83.57
2019-06-08T02:14:33.248Z,82.20
2019-06-08T02:15:33.859Z,81.99
2019-06-08T02:16:33.343Z,81.49
2019-06-08T02:17:33.469Z,81.79
2019-06-08T02:18:44.106Z,82.04
2019-06-08T02:19:34.797Z,83.45
2019-06-08T02:20:33.072Z,82.24
2019-06-08T02:21:32.939Z,82.34
2019-06-08T02:22:33.110Z,83.54
2019-06-08T02:23:33.096Z,83.79
2019-06-08T02:24:33.383Z,82.58
2019-06-08T02:25:33.538Z,82.18
2019-06-08T02:26:35.157Z,82.68
2019-06-08T02:27:33.552Z,83.79
2019-06-08T02:28:33.640Z,82.88
2019-06-08T02:29:33.689Z,81.37
2019-06-08T02:30:36.006Z,81.77
2019-06-08T02:31:33.222Z,81.81
2019-06-08T02:32:33.505Z,81.21
2019-06-08T02:33:34.677Z,81.91
2019-06-08T02:34:34.732Z,82.01
2019-06-08T02:35:32.947Z,82.05
2019-06-08T02:36:33.745Z,81.95
2019-06-08T02:37:33.085Z,82.45
2019-06-08T02:38:34.621Z,82.05
2019-06-08T02:39:32.807Z,82.05
2019-06-08T02:40:34.576Z,82.35
2019-06-08T02:41:33.133Z,81.85
2019-06-08T02:42:33.082Z,81.99
2019-06-08T02:43:33.349Z,82.45
2019-06-08T02:44:34.291Z,81.55
2019-06-08T02:45:34.053Z,82.39
2019-06-08T02:46:33.320Z,82.35
2019-06-08T02:47:33.051Z,82.19
2019-06-08T02:48:33.597Z,82.39
2019-06-08T02:49:33.228Z,82.19
2019-06-08T02:50:33.042Z,82.29
2019-06-08T02:51:34.302Z,82.29
2019-06-08T02:52:34.348Z,82.09
2019-06-08T02:53:34.278Z,81.89
2019-06-08T02:54:34.719Z,81.99
2019-06-08T02:55:33.066Z,81.99
2019-06-08T02:56:33.936Z,82.09
2019-06-08T02:57:33.239Z,82.39
2019-06-08T02:58:33.580Z,82.09
2019-06-08T02:59:32.921Z,80.78
2019-06-08T03:00:33.659Z,81.18
2019-06-08T03:01:33.702Z,81.28
2019-06-08T03:02:33.903Z,81.99
2019-06-08T03:03:33.796Z,81.28
2019-06-08T03:04:32.455Z,82.09
2019-06-08T03:05:33.987Z,81.89
2019-06-08T03:06:34.537Z,81.79
2019-06-08T03:07:32.385Z,81.48
2019-06-08T03:08:32.838Z,82.19
2019-06-08T03:09:32.508Z,81.99
2019-06-08T03:10:32.939Z,82.50
2019-06-08T03:11:32.647Z,81.28
2019-06-08T03:12:32.992Z,81.89
2019-06-08T03:13:33.582Z,81.99
2019-06-08T03:14:33.318Z,82.50
2019-06-08T03:15:34.490Z,81.18
2019-06-08T03:16:33.347Z,81.38
2019-06-08T03:17:33.389Z,82.09
2019-06-08T03:18:33.642Z,81.68
2019-06-08T03:19:33.321Z,81.48
2019-06-08T03:20:33.449Z,78.86
2019-06-08T03:21:33.828Z,79.36
2019-06-08T03:22:34.036Z,79.16
2019-06-08T03:23:34.058Z,78.06
2019-06-08T03:24:32.905Z,78.26
2019-06-08T03:25:35.182Z,78.46
2019-06-08T03:26:34.249Z,79.06
2019-06-08T03:27:32.664Z,77.75
2019-06-08T03:28:32.625Z,77.86
2019-06-08T03:29:32.468Z,78.09
2019-06-08T03:30:35.302Z,77.89
2019-06-08T03:31:36.125Z,76.24
2019-06-08T03:32:34.840Z,75.77
2019-06-08T03:33:34.527Z,75.16
2019-06-08T03:34:35.571Z,74.87
2019-06-08T03:35:36.056Z,74.96
2019-06-08T03:36:35.823Z,73.65
2019-06-08T03:37:33.280Z,74.36
2019-06-08T03:38:33.595Z,74.46
2019-06-08T03:39:31.951Z,74.87
2019-06-08T03:40:33.791Z,75.37
2019-06-08T03:41:31.930Z,75.98
2019-06-08T03:42:31.920Z,75.27
2019-06-08T03:43:31.907Z,75.98
2019-06-08T03:44:31.903Z,75.81
2019-06-08T03:45:31.885Z,75.16
2019-06-08T03:46:31.872Z,75.81
2019-06-08T03:47:31.862Z,75.87
2019-06-08T03:48:31.854Z,77.73
2019-06-08T03:49:42.910Z,77.79
2019-06-08T03:50:32.831Z,76.68
2019-06-08T03:51:35.349Z,78.13
2019-06-08T03:52:32.808Z,78.23
2019-06-08T03:53:31.798Z,78.33
2019-06-08T03:54:31.793Z,78.23
2019-06-08T03:55:31.777Z,78.43
2019-06-08T03:56:31.764Z,79.38
2019-06-08T03:57:31.760Z,80.49
2019-06-08T03:58:34.124Z,78.88
2019-06-08T03:59:31.735Z,77.46
2019-06-08T04:00:31.721Z,75.74
2019-06-08T04:01:31.709Z,77.36
2019-06-08T04:02:31.699Z,78.06
2019-06-08T04:03:31.690Z,77.29
2019-06-08T04:04:31.689Z,78.41
2019-06-08T04:05:31.668Z,78.10
2019-06-08T04:06:31.655Z,77.60
2019-06-08T04:07:31.646Z,78.30
2019-06-08T04:08:31.635Z,77.70
2019-06-08T04:09:31.637Z,80.12
2019-06-08T04:10:31.614Z,80.12
2019-06-08T04:11:31.606Z,78.61
2019-06-08T04:12:31.594Z,79.41
2019-06-08T04:13:31.580Z,79.72
2019-06-08T04:14:31.600Z,79.21
2019-06-08T04:15:31.560Z,79.55
2019-06-08T04:16:31.552Z,79.72
2019-06-08T04:17:31.545Z,81.64
2019-06-08T04:18:31.526Z,80.66
2019-06-08T04:19:31.514Z,82.69
2019-06-08T04:20:31.503Z,81.13
2019-06-08T04:21:31.573Z,81.98
2019-06-08T04:22:31.483Z,81.98
2019-06-08T04:23:31.473Z,81.78
2019-06-08T04:24:31.463Z,81.17
2019-06-08T04:25:31.448Z,81.17
2019-06-08T04:26:31.445Z,80.93
2019-06-08T04:27:31.440Z,81.34
2019-06-08T04:28:31.429Z,81.84
2019-06-08T04:29:31.405Z,80.53
2019-06-08T04:30:31.396Z,81.13
2019-06-08T04:31:31.388Z,81.13
2019-06-08T04:32:31.376Z,82.65
2019-06-08T04:33:31.362Z,81.13
2019-06-08T04:34:31.356Z,81.54
2019-06-08T04:35:31.344Z,81.94
2019-06-08T04:36:31.330Z,81.64
2019-06-08T04:37:31.322Z,80.73
2019-06-08T04:38:31.307Z,80.22
2019-06-08T04:39:31.299Z,80.73
2019-06-08T04:40:31.291Z,80.22
2019-06-08T04:41:31.276Z,80.32
2019-06-08T04:42:31.276Z,79.82
2019-06-08T04:43:31.256Z,79.41
2019-06-08T04:44:31.245Z,78.41
2019-06-08T04:45:31.268Z,79.62
2019-06-08T04:46:31.222Z,78.50
2019-06-08T04:47:31.214Z,77.80
2019-06-08T04:48:31.201Z,77.50
2019-06-08T04:49:31.194Z,77.90
2019-06-08T04:50:31.181Z,77.80
2019-06-08T04:51:31.175Z,76.62
2019-06-08T04:52:31.162Z,76.39
2019-06-08T04:53:31.145Z,76.48
2019-06-08T04:54:31.157Z,76.18
2019-06-08T04:55:31.208Z,76.62
2019-06-08T04:56:31.114Z,76.69
2019-06-08T04:57:31.103Z,75.98
2019-06-08T04:58:31.095Z,76.79
2019-06-08T04:59:31.081Z,77.60
2019-06-08T05:00:31.525Z,76.08
2019-06-08T05:01:31.059Z,76.48
2019-06-08T05:02:31.047Z,77.29
2019-06-08T05:03:31.057Z,77.50
2019-06-08T05:04:31.032Z,75.98
2019-06-08T05:05:31.020Z,76.48
2019-06-08T05:06:31.029Z,75.95
2019-06-08T05:07:30.995Z,75.95
2019-06-08T05:08:30.983Z,76.25
2019-06-08T05:09:30.977Z,75.91
2019-06-08T05:10:30.962Z,75.44
2019-06-08T05:11:30.953Z,75.84
2019-06-08T05:12:30.950Z,75.71
2019-06-08T05:13:30.939Z,75.31
2019-06-08T05:14:30.926Z,75.10
2019-06-08T05:15:30.906Z,75.64
2019-06-08T05:16:30.901Z,74.93
2019-06-08T05:17:30.886Z,75.20
2019-06-08T05:18:30.875Z,74.69
2019-06-08T05:19:31.001Z,75.10
2019-06-08T05:20:38.837Z,75.20
2019-06-08T05:21:31.845Z,74.29
2019-06-08T05:22:30.832Z,73.69
2019-06-08T05:23:30.821Z,74.40
2019-06-08T05:24:30.814Z,73.99
2019-06-08T05:25:30.797Z,73.99
2019-06-08T05:26:30.799Z,73.99
2019-06-08T05:27:30.782Z,73.28
2019-06-08T05:28:30.791Z,74.60
2019-06-08T05:29:30.757Z,73.58
2019-06-08T05:30:30.743Z,75.20
2019-06-08T05:31:30.734Z,74.60
2019-06-08T05:32:30.724Z,74.69
2019-06-08T05:33:30.721Z,75.20
2019-06-08T05:34:30.703Z,74.96
2019-06-08T05:35:30.703Z,73.32
2019-06-08T05:36:30.682Z,71.97
2019-06-08T05:37:30.666Z,71.30
2019-06-08T05:38:30.662Z,69.42
2019-06-08T05:39:30.910Z,68.98
2019-06-08T05:40:30.634Z,68.28
2019-06-08T05:41:30.625Z,68.05
2019-06-08T05:42:30.614Z,67.94
2019-06-08T05:43:30.603Z,65.67
2019-06-08T05:44:30.608Z,65.77
2019-06-08T05:45:30.581Z,65.41
2019-06-08T05:46:30.568Z,65.30
2019-06-08T05:47:30.558Z,65.44
2019-06-08T05:48:30.545Z,63.76
2019-06-08T05:49:30.534Z,65.84
2019-06-08T05:50:30.539Z,65.53
2019-06-08T05:51:30.513Z,65.64
2019-06-08T05:52:30.538Z,64.23
2019-06-08T05:53:30.489Z,65.44
2019-06-08T05:54:30.487Z,64.53
2019-06-08T05:55:30.468Z,64.90
2019-06-08T05:56:30.458Z,64.30
2019-06-08T05:57:30.450Z,63.96
2019-06-08T05:58:30.436Z,62.99
2019-06-08T05:59:30.425Z,63.46
2019-06-08T06:00:30.414Z,63.67
2019-06-08T06:01:30.403Z,63.93
2019-06-08T06:02:30.394Z,62.53
2019-06-08T06:03:30.389Z,62.13
2019-06-08T06:04:30.384Z,62.23
2019-06-08T06:05:30.358Z,61.55
2019-06-08T06:06:30.349Z,63.19
2019-06-08T06:07:30.339Z,62.36
2019-06-08T06:08:30.342Z,62.26
2019-06-08T06:09:30.318Z,61.76
2019-06-08T06:10:30.305Z,62.29
2019-06-08T06:11:30.295Z,62.06
2019-06-08T06:12:30.283Z,61.86
2019-06-08T06:13:30.277Z,62.79
2019-06-08T06:14:30.270Z,61.96
2019-06-08T06:15:30.253Z,61.15
2019-06-08T06:16:30.239Z,61.25
2019-06-08T06:17:30.231Z,60.75
2019-06-08T06:18:30.222Z,60.15
2019-06-08T06:19:30.208Z,60.65
2019-06-08T06:20:30.199Z,60.72
2019-06-08T06:21:30.187Z,60.12
2019-06-08T06:22:30.173Z,59.69
2019-06-08T06:23:30.162Z,59.23
2019-06-08T06:24:30.164Z,58.96
2019-06-08T06:25:30.144Z,61.10
2019-06-08T06:26:30.132Z,59.16
2019-06-08T06:27:30.123Z,57.98
2019-06-08T06:28:30.113Z,59.42
2019-06-08T06:29:30.104Z,59.32
2019-06-08T06:30:30.090Z,60.85
2019-06-08T06:31:30.076Z,61.88
2019-06-08T06:32:30.080Z,60.68
2019-06-08T06:33:30.056Z,61.31
2019-06-08T06:34:30.048Z,61.14
2019-06-08T06:35:30.050Z,61.31
2019-06-08T06:36:30.021Z,62.35
2019-06-08T06:37:30.013Z,61.91
2019-06-08T06:38:30.002Z,61.82
2019-06-08T06:39:29.991Z,60.33
2019-06-08T06:40:29.984Z,60.31
2019-06-08T06:41:29.974Z,60.41
2019-06-08T06:42:29.961Z,60.88
2019-06-08T06:43:29.953Z,60.68
2019-06-08T06:44:29.944Z,60.28
2019-06-08T06:45:29.925Z,61.69
2019-06-08T06:46:29.913Z,60.18
2019-06-08T06:47:29.902Z,60.21
2019-06-08T06:48:29.896Z,61.65
2019-06-08T06:49:29.882Z,61.91
2019-06-08T06:50:29.889Z,59.34
2019-06-08T06:51:29.861Z,58.81
2019-06-08T06:52:29.849Z,58.39
2019-06-08T06:53:29.840Z,57.15
2019-06-08T06:54:29.849Z,56.52
2019-06-08T06:55:29.815Z,58.23
2019-06-08T06:56:29.805Z,54.62
2019-06-08T06:57:29.795Z,54.12
2019-06-08T06:58:29.783Z,54.12
2019-06-08T06:59:29.774Z,54.72
2019-06-08T07:00:29.761Z,53.50
2019-06-08T07:01:29.753Z,53.39
2019-06-08T07:02:29.740Z,54.57
2019-06-08T07:03:29.742Z,53.57
2019-06-08T07:04:29.726Z,52.55
2019-06-08T07:05:29.706Z,53.37
2019-06-08T07:06:29.696Z,52.24
2019-06-08T07:07:29.684Z,52.14
2019-06-08T07:08:29.679Z,53.17
2019-06-08T07:09:29.663Z,53.37
2019-06-08T07:10:29.654Z,55.15
2019-06-08T07:11:29.646Z,52.62
2019-06-08T07:12:29.634Z,50.49
2019-06-08T07:13:29.630Z,51.44
2019-06-08T07:14:29.611Z,52.74
2019-06-08T07:15:29.598Z,52.94
2019-06-08T07:16:29.587Z,53.19
2019-06-08T07:17:29.589Z,53.75
2019-06-08T07:18:29.566Z,54.80
2019-06-08T07:19:29.563Z,58.04
2019-06-08T07:20:29.549Z,57.74
2019-06-08T07:21:41.380Z,58.04
2019-06-08T07:22:30.523Z,58.67
2019-06-08T07:23:29.513Z,57.97
2019-06-08T07:24:29.503Z,58.67
2019-06-08T07:25:29.490Z,57.37
2019-06-08T07:26:29.481Z,56.99
2019-06-08T07:27:29.467Z,58.07
2019-06-08T07:28:29.466Z,58.09
2019-06-08T07:29:29.447Z,58.12
2019-06-08T07:30:29.437Z,58.53
2019-06-08T07:31:29.429Z,59.70
2019-06-08T07:32:29.415Z,58.20
2019-06-08T07:33:29.406Z,59.33
2019-06-08T07:34:29.395Z,58.22
2019-06-08T07:35:29.381Z,59.70
2019-06-08T07:36:29.371Z,58.09
2019-06-08T07:37:29.576Z,58.29
2019-06-08T07:38:29.350Z,59.30
2019-06-08T07:39:29.344Z,58.40
2019-06-08T07:40:29.326Z,58.40
2019-06-08T07:41:29.319Z,58.29
2019-06-08T07:42:29.308Z,58.00
2019-06-08T07:43:29.295Z,57.26
2019-06-08T07:44:29.289Z,58.47
2019-06-08T07:45:29.273Z,57.77
2019-06-08T07:46:29.263Z,57.17
2019-06-08T07:47:29.252Z,56.46
2019-06-08T07:48:29.240Z,56.69
2019-06-08T07:49:29.231Z,58.00
2019-06-08T07:50:29.219Z,58.80
2019-06-08T07:51:29.213Z,59.13
2019-06-08T07:52:29.197Z,59.23
2019-06-08T07:53:29.200Z,58.62
2019-06-08T07:54:29.183Z,59.56
2019-06-08T07:55:29.163Z,58.75
2019-06-08T07:56:29.154Z,58.38
2019-06-08T07:57:29.150Z,59.19
2019-06-08T07:58:29.132Z,58.81
2019-06-08T07:59:29.121Z,58.41
2019-06-08T08:00:29.111Z,59.11
2019-06-08T08:01:36.052Z,59.42
2019-06-08T08:02:30.085Z,59.82
2019-06-08T08:03:29.076Z,60.55
2019-06-08T08:04:29.067Z,60.52
2019-06-08T08:05:29.054Z,61.03
2019-06-08T08:06:30.435Z,61.33
2019-06-08T08:07:29.034Z,61.43
2019-06-08T08:08:29.022Z,60.52
2019-06-08T08:09:29.573Z,60.52
2019-06-08T08:10:29.006Z,59.42
2019-06-08T08:11:29.041Z,59.52
2019-06-08T08:12:28.981Z,59.14
2019-06-08T08:13:28.969Z,58.01
2019-06-08T08:14:28.961Z,58.28
2019-06-08T08:15:28.949Z,57.90
2019-06-08T08:16:28.934Z,58.11
2019-06-08T08:17:28.923Z,58.18
2019-06-08T08:18:28.917Z,59.26
2019-06-08T08:19:28.903Z,59.16
2019-06-08T08:20:28.890Z,59.23
2019-06-08T08:21:29.589Z,59.13
2019-06-08T08:22:29.589Z,58.25
2019-06-08T08:23:28.860Z,59.26
2019-06-08T08:24:28.853Z,59.76
2019-06-08T08:25:28.841Z,58.25
2019-06-08T08:26:31.308Z,59.56
2019-06-08T08:27:29.816Z,58.28
2019-06-08T08:28:28.805Z,59.62
2019-06-08T08:29:31.374Z,59.72
2019-06-08T08:30:28.782Z,60.52
2019-06-08T08:31:28.772Z,59.01
2019-06-08T08:32:28.767Z,60.63
2019-06-08T08:33:28.750Z,59.44
2019-06-08T08:34:28.748Z,60.55
2019-06-08T08:35:28.729Z,60.45
2019-06-08T08:36:30.129Z,60.15
2019-06-08T08:37:28.707Z,59.64
2019-06-08T08:38:28.700Z,59.55
2019-06-08T08:39:28.684Z,59.84
2019-06-08T08:40:28.676Z,59.34
2019-06-08T08:41:28.664Z,59.84
2019-06-08T08:42:30.134Z,58.64
2019-06-08T08:43:28.640Z,59.75
2019-06-08T08:44:28.633Z,59.24
2019-06-08T08:45:28.623Z,58.71
2019-06-08T08:46:28.724Z,59.22
2019-06-08T08:47:30.818Z,58.81
2019-06-08T08:48:31.502Z,59.01
2019-06-08T08:49:28.576Z,58.41
2019-06-08T08:50:28.566Z,58.18
2019-06-08T08:51:28.556Z,59.19
2019-06-08T08:52:36.806Z,58.07
2019-06-08T08:53:29.534Z,57.98
2019-06-08T08:54:29.788Z,56.95
2019-06-08T08:55:28.511Z,59.26
2019-06-08T08:56:28.498Z,58.15
2019-06-08T08:57:28.940Z,57.88
2019-06-08T08:58:28.483Z,59.19
2019-06-08T08:59:28.466Z,59.48
2019-06-08T09:00:28.456Z,59.69
2019-06-08T09:01:28.967Z,60.63
2019-06-08T09:02:28.437Z,59.82
2019-06-08T09:03:33.247Z,60.02
2019-06-08T09:04:29.418Z,60.65
2019-06-08T09:05:28.403Z,61.56
2019-06-08T09:06:28.430Z,60.15
2019-06-08T09:07:28.381Z,60.83
2019-06-08T09:08:29.935Z,59.64
2019-06-08T09:09:28.891Z,60.05
2019-06-08T09:10:28.347Z,60.96
2019-06-08T09:11:28.906Z,61.13
2019-06-08T09:12:28.338Z,60.45
2019-06-08T09:13:28.386Z,59.95
2019-06-08T09:14:28.312Z,60.75
2019-06-08T09:15:31.419Z,61.23
2019-06-08T09:16:28.859Z,60.15
2019-06-08T09:17:28.290Z,59.75
2019-06-08T09:18:28.691Z,60.15
2019-06-08T09:19:28.326Z,59.14
2019-06-08T09:20:28.647Z,59.14
2019-06-08T09:21:28.317Z,59.67
2019-06-08T09:22:31.170Z,59.27
2019-06-08T09:23:28.291Z,59.57
2019-06-08T09:24:28.603Z,59.37
2019-06-08T09:25:28.225Z,59.47
2019-06-08T09:26:28.745Z,59.57
2019-06-08T09:27:28.185Z,58.87
2019-06-08T09:28:28.582Z,60.88
2019-06-08T09:29:28.927Z,59.77
2019-06-08T09:30:28.145Z,58.59
2019-06-08T09:31:30.881Z,58.67
2019-06-08T09:32:28.326Z,59.27
2019-06-08T09:33:28.790Z,59.17
2019-06-08T09:34:28.379Z,59.27
2019-06-08T09:35:28.118Z,58.87
2019-06-08T09:36:28.647Z,59.24
2019-06-08T09:37:28.827Z,59.64
2019-06-08T09:38:28.724Z,58.23
2019-06-08T09:39:28.667Z,59.92
2019-06-08T09:40:31.857Z,57.70
2019-06-08T09:41:31.161Z,57.10
2019-06-08T09:42:28.481Z,56.90
2019-06-08T09:43:28.902Z,59.39
2019-06-08T09:44:28.191Z,57.45
2019-06-08T09:45:28.973Z,56.84
2019-06-08T09:46:28.236Z,56.74
2019-06-08T09:47:28.117Z,56.64
2019-06-08T09:48:28.862Z,56.95
2019-06-08T09:49:28.099Z,56.27
2019-06-08T09:50:27.973Z,55.96
2019-06-08T09:51:28.488Z,56.80
2019-06-08T09:52:28.264Z,57.00
2019-06-08T09:53:36.965Z,55.59
2019-06-08T09:54:28.870Z,56.92
2019-06-08T09:55:28.847Z,56.92
2019-06-08T09:56:28.416Z,56.02
2019-06-08T09:57:28.442Z,56.72
2019-06-08T09:58:29.104Z,55.54
2019-06-08T09:59:28.506Z,57.23
2019-06-08T10:00:29.289Z,55.34
2019-06-08T10:01:28.675Z,56.75
2019-06-08T10:02:28.363Z,56.85
2019-06-08T10:03:30.654Z,55.14
2019-06-08T10:04:29.164Z,56.62
2019-06-08T10:05:27.786Z,56.72
2019-06-08T10:06:27.820Z,56.62
2019-06-08T10:07:28.613Z,56.42
2019-06-08T10:08:28.281Z,57.23
2019-06-08T10:09:28.412Z,55.29
2019-06-08T10:10:27.693Z,56.29
2019-06-08T10:11:28.171Z,56.80
2019-06-08T10:12:28.187Z,56.37
2019-06-08T10:13:28.037Z,55.26
2019-06-08T10:14:28.179Z,56.24
2019-06-08T10:15:27.900Z,55.00
2019-06-08T10:16:30.537Z,55.28
2019-06-08T10:17:27.983Z,54.80
2019-06-08T10:18:28.491Z,55.00
2019-06-08T10:19:27.598Z,54.71
2019-06-08T10:20:28.825Z,56.31
2019-06-08T10:21:28.436Z,55.00
2019-06-08T10:22:28.287Z,54.30
2019-06-08T10:23:34.025Z,54.71
2019-06-08T10:24:28.552Z,56.51
2019-06-08T10:25:28.639Z,56.31
2019-06-08T10:26:28.029Z,54.30
2019-06-08T10:27:28.333Z,53.02
2019-06-08T10:28:29.002Z,55.33
2019-06-08T10:29:27.485Z,54.46
2019-06-08T10:30:30.111Z,57.15
2019-06-08T10:31:36.564Z,56.67
2019-06-08T10:32:28.465Z,56.37
2019-06-08T10:33:28.183Z,55.54
2019-06-08T10:34:29.592Z,56.27
2019-06-08T10:35:28.356Z,56.27
2019-06-08T10:36:28.389Z,55.39
2019-06-08T10:37:28.349Z,56.70
2019-06-08T10:38:28.989Z,55.19
2019-06-08T10:39:28.376Z,56.60
2019-06-08T10:40:28.515Z,55.29
2019-06-08T10:41:27.898Z,56.72
2019-06-08T10:42:27.345Z,56.90
2019-06-08T10:43:28.925Z,56.09
2019-06-08T10:44:28.391Z,56.70
2019-06-08T10:45:28.599Z,56.70
2019-06-08T10:46:27.303Z,57.40
2019-06-08T10:47:29.583Z,57.68
2019-06-08T10:48:27.679Z,57.17
2019-06-08T10:49:28.714Z,56.77
2019-06-08T10:50:28.807Z,56.47
2019-06-08T10:51:27.245Z,55.46
2019-06-08T10:52:28.169Z,56.44
2019-06-08T10:53:29.758Z,55.33
2019-06-08T10:54:28.210Z,55.43
2019-06-08T10:55:28.079Z,55.13
2019-06-08T10:56:30.905Z,54.91
2019-06-08T10:57:28.016Z,54.80
2019-06-08T10:58:28.392Z,54.71
2019-06-08T10:59:28.927Z,53.77
2019-06-08T11:00:28.144Z,53.47
2019-06-08T11:01:28.260Z,53.05
2019-06-08T11:02:28.233Z,52.92
2019-06-08T11:03:30.396Z,53.09
2019-06-08T11:04:28.662Z,53.27
2019-06-08T11:05:28.060Z,51.64
2019-06-08T11:06:27.109Z,49.87
2019-06-08T11:07:28.010Z,50.20
2019-06-08T11:08:27.650Z,49.74
2019-06-08T11:09:28.599Z,48.40
2019-06-08T11:10:27.053Z,46.70
2019-06-08T11:11:28.504Z,46.43
2019-06-08T11:12:28.319Z,48.90
2019-06-08T11:13:28.278Z,46.83
2019-06-08T11:14:27.997Z,48.80
2019-06-08T11:15:29.404Z,47.63
2019-06-08T11:16:28.662Z,46.95
2019-06-08T11:17:27.920Z,47.80
2019-06-08T11:18:28.639Z,45.81
2019-06-08T11:19:26.950Z,45.93
2019-06-08T11:20:27.563Z,45.85
2019-06-08T11:21:28.613Z,46.47
2019-06-08T11:22:27.881Z,47.69
2019-06-08T11:23:28.750Z,46.51
2019-06-08T11:24:28.798Z,47.14
2019-06-08T11:25:27.995Z,49.76
2019-06-08T11:26:28.927Z,48.41
2019-06-08T11:27:28.473Z,46.41
2019-06-08T11:28:28.355Z,48.43
2019-06-08T11:29:27.554Z,47.61
2019-06-08T11:30:30.317Z,48.93
2019-06-08T11:31:29.806Z,48.38
2019-06-08T11:32:27.803Z,46.62
2019-06-08T11:33:30.243Z,45.67
2019-06-08T11:34:28.695Z,44.83
2019-06-08T11:35:28.618Z,44.61
2019-06-08T11:36:28.215Z,46.43
2019-06-08T11:37:26.751Z,44.35
2019-06-08T11:38:28.889Z,43.01
2019-06-08T11:39:28.706Z,42.61
2019-06-08T11:40:27.857Z,44.53
2019-06-08T11:41:27.826Z,42.81
2019-06-08T11:42:28.638Z,43.11
2019-06-08T11:43:28.743Z,42.71
2019-06-08T11:44:27.615Z,42.18
2019-06-08T11:45:26.667Z,42.83
2019-06-08T11:46:28.173Z,40.08
2019-06-08T11:47:27.732Z,41.66
2019-06-08T11:48:28.538Z,40.18
2019-06-08T11:49:27.883Z,41.82
2019-06-08T11:50:26.612Z,41.96
2019-06-08T11:51:29.648Z,43.05
2019-06-08T11:52:28.579Z,42.05
2019-06-08T11:53:28.680Z,42.57
2019-06-08T11:54:34.369Z,40.75
2019-06-08T11:55:28.145Z,40.73
2019-06-08T11:56:26.548Z,41.74
2019-06-08T11:57:28.295Z,41.85
2019-06-08T11:58:28.262Z,40.00
2019-06-08T11:59:28.483Z,41.27
2019-06-08T12:00:30.706Z,40.37
2019-06-08T12:01:27.663Z,42.33
2019-06-08T12:02:26.488Z,40.01
2019-06-08T12:03:27.651Z,37.76
2019-06-08T12:04:28.334Z,40.30
2019-06-08T12:05:27.835Z,40.13
2019-06-08T12:06:26.448Z,40.27
2019-06-08T12:07:28.254Z,40.97
2019-06-08T12:08:28.435Z,40.69
2019-06-08T12:09:28.505Z,42.69
2019-06-08T12:10:28.460Z,41.99
2019-06-08T12:11:28.357Z,42.80
2019-06-08T12:12:28.278Z,41.39
2019-06-08T12:13:27.810Z,41.09
2019-06-08T12:14:26.358Z,42.19
2019-06-08T12:15:28.646Z,41.99
2019-06-08T12:16:28.233Z,42.30
2019-06-08T12:17:27.642Z,43.10
2019-06-08T12:18:26.312Z,42.30
2019-06-08T12:19:28.335Z,42.80
2019-06-08T12:20:27.983Z,43.18
2019-06-08T12:21:27.374Z,42.76
2019-06-08T12:22:26.271Z,43.88
2019-06-08T12:23:26.268Z,44.06
2019-06-08T12:24:40.856Z,41.47
2019-06-08T12:25:27.237Z,43.35
2019-06-08T12:26:26.225Z,44.54
2019-06-08T12:27:33.189Z,41.71
2019-06-08T12:28:28.063Z,42.21
2019-06-08T12:29:28.226Z,40.11
2019-06-08T12:30:29.452Z,40.93
2019-06-08T12:31:28.078Z,39.41
2019-06-08T12:32:27.852Z,39.01
2019-06-08T12:33:30.340Z,39.87
2019-06-08T12:34:28.070Z,39.40
2019-06-08T12:35:28.274Z,37.67
2019-06-08T12:36:28.734Z,35.06
2019-06-08T12:37:27.559Z,35.47
2019-06-08T12:38:30.042Z,36.29
2019-06-08T12:39:28.150Z,37.02
2019-06-08T12:40:28.110Z,39.54
2019-06-08T12:41:28.896Z,40.00
2019-06-08T12:42:28.360Z,39.36
2019-06-08T12:43:28.317Z,36.16
2019-06-08T12:44:28.933Z,37.45
2019-06-08T12:45:27.616Z,36.34
2019-06-08T12:46:27.974Z,37.13
2019-06-08T12:47:29.229Z,35.88
2019-06-08T12:48:25.990Z,36.19
2019-06-08T12:49:25.979Z,37.10
2019-06-08T12:50:28.103Z,35.59
2019-06-08T12:51:27.923Z,34.48
2019-06-08T12:52:29.523Z,36.67